Pagrindinis puslapis
METAR-TAF:

METAR-TAF

Oro uostai :

Jonšiopingas, Švedija

platuma: 57-46N, ilguma: 014-05E, Aukštis: 226 m

Dabartinis oras

Ataskaita buvo paskelbta 23 minutes, ne 19:20 UTC
Vėjas 16 kt iš Pietvakarių
Temperatūra 6°C
Drėgmė 81%
Slėgis 999 hPa
Matomumas 10 km arba daugiau
Mažai debesys ne aukštis 2000 ft
Su prošvaistėmis ne aukštis 3000 ft

METAR: ESGJ 051920Z 23016KT 9999 FEW020 BKN030 06/03 Q0999

Laikas: 20:43 (19:43 UTC)

Prognozė

Ataskaita buvo paskelbta 2 valandos ir 13 minutes, ne 17:30 UTC
Prognozė galioja nuo 05 metu 18 UTC su 06 metu 02 UTC
Vėjas 17 kt iš Vakarų/Pietvakarių su gūsio iki 27 kt
Matomumas 10 km arba daugiau
Išsisklaidę debesys ne aukštis 2000 ft
Su prošvaistėmis ne aukštis 3500 ft
Laikinai
nuo 05 metu 18 UTC su 06 metu 02 UTC
Matomumas: 4000 m
Su prošvaistėmis ne aukštis 1000 ft
lietus, dulksna

TAF: ESGJ 051730Z 0518/0602 24017G27KT 9999 SCT020 BKN035 TEMPO 0518/0602 4000 RA DZ BKN010

Orai ataskaitas ir orų prognozės (METAR, TAF).

turimą stotys yra geltonos ir raudonos taškus žemėlapyje.

Perkelti pele per norėdami pamatyti stoties vardą.

Tada spustelėkite, norėdami matyti oro stebėjimo ir prognozės.

Norėdami pakeisti žemėlapį: spustelėkite ant žalios mygtukų su juodo kryžiaus žemyn,; žalią mygtuką su brūkšneliu, jei norite nutolinti; arba žalių rodyklių gretimoms žemėlapius.


METAR-TAF: